EW6329 Weather Reports


Display with metric or nautical units.
time (UTC)temp
F
wind
direction
speed
MPH
gust
MPH
rain 1hr
in
rain 24hr
in
rain mn
in
humidity
%
barometer
mb
20230207073100 54 220 0.0 4.0 0.00 0.00 0.00 74 1016.8
20230207071509 55 142 1.0 3.0 0.00 0.00 0.00 74 1016.7
20230207070022 55 125 0.0 2.0 0.00 0.00 0.00 73 1016.6
20230207064541 55 80 0.0 2.0 0.00 0.00 0.00 73 1016.8
20230207063044 55 189 1.0 4.0 0.00 0.00 0.00 72 1016.6
20230207061557 55 173 0.0 2.0 0.00 0.00 0.00 72 1016.4
20230207060008 55 157 1.0 5.0 0.00 0.00 0.00 73 1016.4
20230207054520 54 170 2.0 6.0 0.00 0.00 0.00 74 1016.2
20230207053033 54 169 2.0 8.0 0.00 0.00 0.00 74 1016.1
20230207051546 54 161 1.0 2.0 0.00 0.00 0.00 74 1016.1
20230207050110 54 156 1.0 3.0 0.00 0.00 0.00 73 1016.0
20230207044512 54 185 0.0 4.0 0.00 0.00 0.00 72 1016.1
20230207043037 54 114 1.0 3.0 0.00 0.00 0.00 72 1016.1
20230207041553 54 162 0.0 3.0 0.00 0.00 0.00 72 1016.2
20230207040045 54 160 0.0 4.0 0.00 0.00 0.00 71 1016.1
20230207034600 55 170 1.0 4.0 0.00 0.00 0.00 70 1016.0
20230207033009 55 114 0.0 3.0 0.00 0.00 0.00 68 1016.1
20230207031524 55 143 0.0 6.0 0.00 0.00 0.00 67 1016.1
20230207030035 56 154 1.0 3.0 0.00 0.00 0.00 67 1016.1
20230207024549 56 126 0.0 4.0 0.00 0.00 0.00 67 1016.0
20230207023102 56 180 1.0 2.0 0.00 0.00 0.00 67 1015.8
20230207021513 57 51 1.0 2.0 0.00 0.00 0.00 65 1016.1
20230207020024 57 119 1.0 4.0 0.00 0.00 0.00 65 1016.2
20230207014544 57 138 0.0 3.0 0.00 0.00 0.00 65 1016.1
20230207013052 57 149 1.0 4.0 0.00 0.00 0.00 65 1016.1
20230207011501 58 138 1.0 6.0 0.00 0.00 0.00 65 1016.1
20230207010015 58 194 1.0 5.0 0.00 0.00 0.00 63 1016.2
20230207004533 58 180 0.0 3.0 0.00 0.00 0.00 63 1016.3
20230207003043 58 144 0.0 3.0 0.00 0.00 0.00 62 1016.4
20230207001554 59 144 0.0 2.0 0.00 0.00 0.00 60 1016.3
20230207000005 60 144 0.0 1.0 0.00 0.00 0.00 58 1016.2
20230206234516 61 144 0.0 0.0 0.00 0.00 0.00 57 1016.2
20230206233035 62 144 0.0 2.0 0.00 0.00 0.00 55 1016.0
20230206231542 63 144 0.0 3.0 0.00 0.00 0.00 54 1015.8
20230206230055 64 167 0.0 2.0 0.00 0.00 0.00 53 1016.1
20230206224605 64 167 0.0 4.0 0.00 0.00 0.00 51 1016.3
20230206223018 65 200 0.0 2.0 0.00 0.00 0.00 50 1016.4
20230206221527 65 212 1.0 6.0 0.00 0.00 0.00 48 1016.6
20230206220042 66 130 1.0 4.0 0.00 0.00 0.00 49 1016.6
20230206214554 66 143 1.0 4.0 0.00 0.00 0.00 49 1016.8
20230206213003 66 187 2.0 6.0 0.00 0.00 0.00 47 1017.0
20230206211517 66 271 1.0 7.0 0.00 0.00 0.00 46 1017.1
20230206210033 66 171 1.0 6.0 0.00 0.00 0.00 45 1017.2
20230206204548 66 147 1.0 6.0 0.00 0.00 0.00 47 1017.4
20230206203108 67 238 2.0 7.0 0.00 0.00 0.00 46 1017.5
20230206201504 67 227 2.0 5.0 0.00 0.00 0.00 48 1017.5
20230206200012 66 138 1.0 5.0 0.00 0.00 0.00 48 1017.7
20230206194526 66 200 1.0 10.0 0.00 0.00 0.00 47 1017.8
20230206193039 66 141 2.0 8.0 0.00 0.00 0.00 51 1018.0
20230206191556 65 196 1.0 4.0 0.00 0.00 0.00 52 1018.4
20230206190109 65 208 2.0 8.0 0.00 0.00 0.00 52 1018.8
20230206184512 64 238 2.0 7.0 0.00 0.00 0.00 50 1019.2
20230206183026 64 191 1.0 6.0 0.00 0.00 0.00 54 1019.6
20230206181537 64 134 1.0 4.0 0.00 0.00 0.00 58 1019.8
20230206180048 63 158 1.0 3.0 0.00 0.00 0.00 59 1020.2
20230206174600 62 214 2.0 4.0 0.00 0.02 0.00 59 1020.4
20230206173013 62 147 2.0 7.0 0.00 0.02 0.00 65 1020.6
20230206171518 60 92 1.0 7.0 0.00 0.02 0.00 70 1020.9
20230206170036 57 250 1.0 7.0 0.00 0.02 0.00 80 1021.2
20230206164539 55 148 2.0 5.0 0.00 0.08 0.00 98 1021.5
20230206163050 53 111 1.0 6.0 0.00 0.08 0.00 99 1021.5
20230206161633 52 165 1.0 5.0 0.00 0.08 0.00 99 1021.5
20230206160010 51 109 1.0 3.0 0.00 0.08 0.00 99 1021.6
20230206154626 49 160 0.0 2.0 0.00 0.12 0.00 99 1021.5
20230206153034 47 160 1.0 3.0 0.00 0.12 0.00 99 1021.5
20230206151544 44 265 0.0 1.0 0.00 0.12 0.00 99 1021.5
20230206150102 43 265 0.0 2.0 0.00 0.12 0.00 98 1021.6
20230206144502 41 265 0.0 1.0 0.00 0.14 0.00 99 1021.6
20230206143018 39 265 0.0 1.0 0.00 0.14 0.00 98 1021.5
20230206141531 37 265 0.0 1.0 0.00 0.14 0.00 98 1021.4
20230206140107 35 267 0.0 2.0 0.00 0.14 0.00 97 1021.3
20230206134609 34 267 1.0 2.0 0.00 0.15 0.00 97 1021.4
20230206133004 33 267 0.0 2.0 0.00 0.15 0.00 97 1021.5
20230206131544 33 267 1.0 2.0 0.00 0.15 0.00 96 1021.5
20230206130014 34 267 0.0 2.0 0.00 0.15 0.00 97 1021.4
20230206124559 35 267 1.0 2.0 0.00 0.16 0.00 97 1021.3
20230206123014 35 267 0.0 1.0 0.00 0.16 0.00 97 1021.1
20230206121534 34 267 0.0 2.0 0.00 0.16 0.00 97 1021.2
20230206120105 34 267 0.0 1.0 0.00 0.16 0.00 96 1020.9
20230206114510 34 267 1.0 2.0 0.00 0.17 0.00 96 1020.8
20230206113037 34 267 0.0 2.0 0.00 0.17 0.00 96 1020.8
20230206111619 34 267 0.0 2.0 0.00 0.17 0.00 96 1020.7
20230206110028 34 267 0.0 1.0 0.00 0.17 0.00 96 1020.6
20230206104551 35 267 0.0 1.0 0.00 0.18 0.00 96 1020.5
20230206103103 35 267 0.0 1.0 0.00 0.18 0.00 96 1020.3
20230206101509 35 267 0.0 0.0 0.00 0.18 0.00 96 1020.4
20230206100034 35 267 0.0 0.0 0.00 0.18 0.00 96 1020.4
20230206094543 36 267 0.0 2.0 0.00 0.19 0.00 95 1020.4
20230206093049 36 267 1.0 2.0 0.00 0.19 0.00 95 1020.3
20230206091521 36 267 0.0 1.0 0.00 0.19 0.00 95 1020.2
20230206090045 37 266 0.0 1.0 0.00 0.19 0.00 95 1020.3
20230206084505 37 265 0.0 1.0 0.00 0.21 0.00 95 1020.4
20230206083034 37 266 0.0 1.0 0.00 0.21 0.00 95 1020.4
20230206081601 38 266 0.0 0.0 0.00 0.21 0.00 95 1020.5
20230206080021 38 266 0.0 0.0 0.00 0.21 0.00 95 1020.4
20230206074603 38 266 0.0 1.0 0.00 0.23 0.00 95 1020.3